Time;durP1;ratioP1;P1;durP2;ratioP2;P2;SDS_P1;SDS_P2;PMS_P1;PMS_P2;Temp;Humidity;BMP_temperature;BMP_pressure;BME280_temperature;BME280_humidity;BME280_pressure;Samples;Min_cycle;Max_cycle;Signal;HPM_P1;HPM_P2
2021/10/24 00:01:24;;;;;;;10.85;5.20;;;;;;;4.68;73.50;101873.97;5027552;28;20565;-64
2021/10/24 00:03:49;;;;;;;11.05;5.30;;;;;;;4.57;73.27;101865.50;5028674;28;20025;-63
2021/10/24 00:06:15;;;;;;;13.68;5.25;;;;;;;4.59;73.22;101871.66;5027450;28;20041;-63
2021/10/24 00:08:40;;;;;;;9.90;5.20;;;;;;;4.56;73.56;101872.66;5028568;28;20032;-64
2021/10/24 00:11:06;;;;;;;11.45;5.50;;;;;;;4.58;73.38;101883.22;5028873;28;20105;-65
2021/10/24 00:13:32;;;;;;;14.13;5.47;;;;;;;4.56;73.42;101887.72;5028710;28;20032;-64
2021/10/24 00:15:58;;;;;;;9.88;5.20;;;;;;;4.53;73.53;101885.16;5028625;28;20029;-64
2021/10/24 00:18:24;;;;;;;10.85;5.20;;;;;;;4.47;74.28;101888.03;5028473;28;20061;-63
2021/10/24 00:20:50;;;;;;;18.98;6.03;;;;;;;4.38;74.79;101875.09;5028500;28;20060;-64
2021/10/24 00:23:17;;;;;;;14.45;5.60;;;;;;;4.36;74.87;101877.81;5027164;28;20018;-64
2021/10/24 00:25:42;;;;;;;13.32;5.38;;;;;;;4.31;74.97;101877.16;5028534;28;20108;-63
2021/10/24 00:28:08;;;;;;;9.98;5.03;;;;;;;4.29;74.99;101880.78;5028300;28;20112;-64
2021/10/24 00:30:34;;;;;;;13.43;5.70;;;;;;;4.24;75.92;101883.63;5028635;28;20041;-67
2021/10/24 00:33:03;;;;;;;19.45;6.25;;;;;;;4.18;76.40;101885.59;5028619;28;20028;-68
2021/10/24 00:35:29;;;;;;;9.25;4.90;;;;;;;4.14;76.07;101884.88;5022153;28;20577;-69
2021/10/24 00:37:54;;;;;;;9.98;5.55;;;;;;;4.09;75.96;101884.16;5025679;28;20034;-67
2021/10/24 00:40:20;;;;;;;14.25;5.35;;;;;;;4.09;75.81;101888.59;5028516;28;20483;-67
2021/10/24 00:42:48;;;;;;;11.07;5.10;;;;;;;4.09;75.35;101891.25;5026993;28;20030;-68
2021/10/24 00:45:13;;;;;;;12.05;5.18;;;;;;;4.07;74.94;101890.47;5031085;28;20395;-64
2021/10/24 00:47:39;;;;;;;15.38;5.18;;;;;;;4.01;74.88;101888.03;5023383;28;20033;-64
2021/10/24 00:50:05;;;;;;;15.73;5.38;;;;;;;3.97;75.33;101887.25;5031015;28;20036;-65
2021/10/24 00:52:30;;;;;;;10.43;4.93;;;;;;;3.97;76.74;101886.41;5032206;28;20033;-63
2021/10/24 00:54:55;;;;;;;9.30;4.93;;;;;;;3.90;77.65;101875.13;5026819;28;20056;-64
2021/10/24 00:57:21;;;;;;;10.68;4.82;;;;;;;3.96;77.68;101884.66;5028628;28;20387;-64
2021/10/24 00:59:46;;;;;;;11.25;5.90;;;;;;;3.85;77.28;101873.56;5032048;28;20400;-64
2021/10/24 01:02:13;;;;;;;13.85;5.10;;;;;;;3.92;76.58;101877.72;5028178;28;20034;-64
2021/10/24 01:04:40;;;;;;;9.25;4.93;;;;;;;3.92;76.55;101889.22;5031460;28;20120;-64
2021/10/24 01:07:05;;;;;;;12.82;5.78;;;;;;;3.88;76.50;101884.94;5024471;28;20468;-65
2021/10/24 01:09:32;;;;;;;12.55;5.15;;;;;;;3.90;76.97;101891.03;5030972;28;20032;-64
2021/10/24 01:11:58;;;;;;;9.25;4.88;;;;;;;3.91;76.71;101890.16;5031896;28;20029;-65
2021/10/24 01:14:24;;;;;;;10.70;4.78;;;;;;;3.81;76.57;101871.94;5031906;28;20100;-65
2021/10/24 01:16:51;;;;;;;9.63;4.50;;;;;;;3.82;76.32;101878.97;5032018;28;20074;-65
2021/10/24 01:19:17;;;;;;;11.13;4.63;;;;;;;3.82;76.38;101879.84;5030132;28;20076;-65
2021/10/24 01:21:43;;;;;;;10.40;4.55;;;;;;;3.79;76.37;101877.31;5030366;28;20090;-65
2021/10/24 01:24:09;;;;;;;12.00;5.03;;;;;;;3.73;75.71;101871.31;5031954;28;20464;-65
2021/10/24 01:26:36;;;;;;;11.13;4.28;;;;;;;3.57;75.32;101848.91;5026585;28;21505;-64
2021/10/24 01:29:03;;;;;;;8.15;4.85;;;;;;;3.73;74.70;101887.25;5031581;28;20032;-65
2021/10/24 01:31:29;;;;;;;12.90;5.00;;;;;;;3.64;74.27;101871.69;5031605;28;20033;-65
2021/10/24 01:33:54;;;;;;;11.20;5.15;;;;;;;3.71;74.60;101899.72;5031583;28;20372;-69
2021/10/24 01:36:20;;;;;;;12.48;4.93;;;;;;;3.64;74.61;101887.59;5031187;28;20033;-68
2021/10/24 01:38:51;;;;;;;10.40;4.50;;;;;;;3.60;75.83;101885.94;5031576;28;20025;-68
2021/10/24 01:41:24;;;;;;;7.88;4.15;;;;;;;3.58;75.95;101895.75;5027526;28;20475;-68
2021/10/24 01:43:50;;;;;;;11.25;5.28;;;;;;;3.52;76.37;101898.63;5023911;28;20030;-67
2021/10/24 01:46:17;;;;;;;8.93;4.57;;;;;;;3.48;76.98;101903.13;5026305;28;20030;-67
2021/10/24 01:48:43;;;;;;;10.23;5.28;;;;;;;3.41;77.31;101903.38;5022494;28;20098;-68
2021/10/24 01:51:09;;;;;;;10.45;4.57;;;;;;;3.35;77.61;101893.00;5031463;28;20038;-67
2021/10/24 01:53:38;;;;;;;11.90;4.72;;;;;;;3.31;77.52;101913.44;5031234;28;20026;-69
2021/10/24 01:56:04;;;;;;;9.93;5.05;;;;;;;3.25;77.52;101903.03;5029918;28;20464;-64
2021/10/24 01:58:30;;;;;;;9.40;5.10;;;;;;;3.28;76.87;101912.66;5031076;28;20033;-64
2021/10/24 02:00:56;;;;;;;8.30;4.50;;;;;;;3.21;77.33;101900.53;5025728;28;20514;-65
2021/10/24 02:03:21;;;;;;;9.35;4.78;;;;;;;3.21;77.79;101911.13;5031233;28;20040;-65
2021/10/24 02:05:47;;;;;;;8.48;4.78;;;;;;;3.21;77.92;101913.78;5030921;28;20021;-64
2021/10/24 02:08:14;;;;;;;11.13;5.15;;;;;;;3.18;78.25;101920.06;5031077;28;20025;-64
2021/10/24 02:10:40;;;;;;;8.68;4.38;;;;;;;3.18;78.66;101925.38;5031015;28;20032;-65
2021/10/24 02:13:08;;;;;;;9.02;4.90;;;;;;;3.17;78.84;101926.28;5030843;28;20029;-65
2021/10/24 02:15:35;;;;;;;8.88;4.85;;;;;;;3.18;78.94;101928.03;5030833;28;20029;-65
2021/10/24 02:18:01;;;;;;;11.43;5.20;;;;;;;3.16;78.08;101923.69;5030490;28;20056;-65
2021/10/24 02:20:29;;;;;;;12.57;4.88;;;;;;;3.14;77.90;101925.50;5030734;28;20029;-65
2021/10/24 02:22:54;;;;;;;11.25;5.22;;;;;;;3.12;77.49;101927.31;5030774;28;20025;-65
2021/10/24 02:25:20;;;;;;;8.20;4.57;;;;;;;3.04;77.62;101921.41;5021034;28;20216;-65
2021/10/24 02:27:45;;;;;;;8.68;4.32;;;;;;;3.09;77.75;101927.47;5018438;28;20056;-66
2021/10/24 02:30:12;;;;;;;12.00;5.00;;;;;;;3.07;77.72;101930.16;5027992;28;20041;-66
2021/10/24 02:32:39;;;;;;;11.20;5.00;;;;;;;3.06;78.20;101930.19;5028801;28;20033;-64
2021/10/24 02:35:05;;;;;;;10.68;4.60;;;;;;;3.01;78.34;101932.13;5026146;28;20034;-65
2021/10/24 02:37:32;;;;;;;10.15;5.20;;;;;;;2.98;78.77;101924.25;5014525;28;20053;-65
2021/10/24 02:39:57;;;;;;;15.60;4.57;;;;;;;2.94;79.37;101923.50;5030199;28;20035;-64
2021/10/24 02:42:23;;;;;;;7.78;4.50;;;;;;;2.95;79.31;101930.53;5030505;28;20068;-64
2021/10/24 02:44:48;;;;;;;11.52;5.03;;;;;;;2.96;79.17;101931.41;5025146;28;20457;-65
2021/10/24 02:47:17;;;;;;;10.45;4.05;;;;;;;2.92;79.14;101929.75;5030305;28;20025;-65
2021/10/24 02:49:42;;;;;;;8.75;4.43;;;;;;;2.83;78.72;101916.81;5030089;28;20040;-64
2021/10/24 02:52:08;;;;;;;10.65;4.65;;;;;;;2.88;78.48;101922.81;5028056;28;20029;-65
2021/10/24 02:54:33;;;;;;;12.35;4.78;;;;;;;2.87;78.98;101936.97;5027522;28;20026;-64
2021/10/24 02:57:00;;;;;;;12.73;4.60;;;;;;;2.81;79.15;101923.91;5030052;28;20025;-68
2021/10/24 02:59:25;;;;;;;11.80;4.97;;;;;;;2.80;79.40;101930.13;5023575;28;20079;-69
2021/10/24 03:01:51;;;;;;;12.20;4.55;;;;;;;2.80;79.14;101938.94;5025022;28;20025;-68
2021/10/24 03:04:16;;;;;;;11.27;5.32;;;;;;;2.79;78.79;101938.97;5028741;28;20439;-68
2021/10/24 03:06:42;;;;;;;8.73;4.22;;;;;;;2.79;78.74;101936.31;5014899;28;20021;-68
2021/10/24 03:09:08;;;;;;;7.75;4.28;;;;;;;2.75;78.72;101940.88;5015408;28;20135;-68
2021/10/24 03:11:34;;;;;;;16.90;5.63;;;;;;;2.74;78.80;101939.13;5029886;28;20021;-68
2021/10/24 03:13:59;;;;;;;10.50;4.07;;;;;;;2.71;79.34;101948.94;5025113;28;20037;-67
2021/10/24 03:16:25;;;;;;;10.77;5.03;;;;;;;2.68;79.42;101949.03;5025541;28;20033;-68
2021/10/24 03:18:50;;;;;;;10.43;5.03;;;;;;;2.70;79.41;101955.19;5029517;28;20056;-65
2021/10/24 03:21:16;;;;;;;13.85;6.32;;;;;;;2.61;78.87;101947.50;5029414;28;20444;-65
2021/10/24 03:23:41;;;;;;;13.85;5.88;;;;;;;2.61;79.77;101961.56;5028355;28;20112;-65
2021/10/24 03:26:07;;;;;;;13.98;6.40;;;;;;;2.59;80.15;101965.19;5029812;28;20379;-65
2021/10/24 03:28:34;;;;;;;10.82;6.22;;;;;;;2.55;80.39;101974.16;5029377;28;20033;-65
2021/10/24 03:31:01;;;;;;;13.50;5.60;;;;;;;2.49;80.28;101975.19;5024072;28;20026;-65
2021/10/24 03:33:27;;;;;;;10.43;5.10;;;;;;;2.48;80.70;101973.44;5027458;28;20052;-65
2021/10/24 03:35:52;;;;;;;9.80;5.25;;;;;;;2.48;80.38;101975.25;5019736;28;20100;-64
2021/10/24 03:38:18;;;;;;;13.00;5.28;;;;;;;2.41;80.61;101973.69;5029138;28;20172;-65
2021/10/24 03:40:44;;;;;;;11.90;5.13;;;;;;;2.42;79.87;101977.13;5029275;28;20053;-66
2021/10/24 03:43:09;;;;;;;10.50;5.05;;;;;;;2.43;78.72;101980.66;5029434;28;20060;-65
2021/10/24 03:45:35;;;;;;;11.77;5.35;;;;;;;2.42;78.60;101982.44;5026641;28;20533;-65
2021/10/24 03:48:00;;;;;;;11.25;5.40;;;;;;;2.42;79.62;101987.72;5029058;28;20048;-65
2021/10/24 03:50:26;;;;;;;10.88;4.65;;;;;;;2.37;80.24;101978.19;5028986;28;20025;-64
2021/10/24 03:52:51;;;;;;;13.00;6.18;;;;;;;2.34;80.62;101979.13;5029362;28;20025;-68
2021/10/24 03:55:17;;;;;;;11.85;5.55;;;;;;;2.33;81.25;101985.31;5025460;28;20115;-68
2021/10/24 03:57:43;;;;;;;9.95;5.20;;;;;;;2.35;80.27;101982.63;5028910;28;20017;-68
2021/10/24 04:00:12;;;;;;;13.02;5.43;;;;;;;2.36;79.32;101992.34;5029106;28;20033;-67
2021/10/24 04:02:55;;;;;;;10.38;4.82;;;;;;;2.33;78.98;101995.91;5029295;28;20584;-69
2021/10/24 04:05:21;;;;;;;9.90;4.93;;;;;;;2.33;79.00;101997.72;5022542;28;20067;-68
2021/10/24 04:07:50;;;;;;;10.45;5.35;;;;;;;2.30;79.22;101992.50;5020228;28;20072;-68
2021/10/24 04:10:17;;;;;;;10.18;5.10;;;;;;;2.31;79.78;101995.09;5023668;28;20091;-68
2021/10/24 04:12:43;;;;;;;11.80;5.18;;;;;;;2.29;79.71;102006.66;5028531;28;20033;-68
2021/10/24 04:15:10;;;;;;;9.57;5.85;;;;;;;2.28;79.70;101994.31;5023800;28;20498;-69
2021/10/24 04:17:35;;;;;;;11.95;5.30;;;;;;;2.20;79.20;101983.06;5028471;28;20136;-69
2021/10/24 04:20:01;;;;;;;11.52;5.05;;;;;;;2.23;79.30;101986.50;5027859;28;20606;-68
2021/10/24 04:22:28;;;;;;;9.70;5.50;;;;;;;2.25;80.18;102005.84;5024445;28;20022;-68
2021/10/24 04:24:54;;;;;;;12.55;5.22;;;;;;;2.24;80.29;101998.84;5015570;28;20037;-68
2021/10/24 04:27:20;;;;;;;9.07;5.25;;;;;;;2.23;80.30;102006.81;5019063;28;20026;-69
2021/10/24 04:29:45;;;;;;;11.23;5.28;;;;;;;2.21;79.88;102006.84;5011680;28;20033;-68
2021/10/24 04:32:11;;;;;;;10.98;5.80;;;;;;;2.13;79.41;101995.59;5024968;28;20167;-68
2021/10/24 04:34:37;;;;;;;12.70;5.60;;;;;;;2.10;79.32;102005.41;5028734;28;20490;-68
2021/10/24 04:37:02;;;;;;;14.88;5.45;;;;;;;2.05;78.88;102002.88;5027692;28;20022;-68
2021/10/24 04:39:28;;;;;;;14.32;6.15;;;;;;;2.11;78.18;102021.25;5018996;28;20033;-69
2021/10/24 04:41:53;;;;;;;13.70;5.75;;;;;;;2.02;77.92;102002.94;5023258;28;20055;-68
2021/10/24 04:44:18;;;;;;;12.68;6.30;;;;;;;2.01;78.14;102017.09;5019763;28;20025;-67
2021/10/24 04:46:44;;;;;;;11.73;5.07;;;;;;;1.89;78.45;102004.19;5019552;28;20041;-69
2021/10/24 04:49:09;;;;;;;12.77;5.93;;;;;;;1.96;78.93;102018.09;5018843;28;20027;-65
2021/10/24 04:51:35;;;;;;;11.25;5.78;;;;;;;1.96;79.56;102024.28;5016551;28;20417;-65
2021/10/24 04:54:00;;;;;;;10.70;5.75;;;;;;;1.90;80.53;102013.84;5015958;28;20034;-65
2021/10/24 04:56:26;;;;;;;14.70;5.78;;;;;;;1.93;80.37;102023.47;5017224;28;20028;-64
2021/10/24 04:58:51;;;;;;;12.52;6.20;;;;;;;1.66;79.70;101981.84;5014450;28;20030;-65
2021/10/24 05:01:17;;;;;;;13.57;6.60;;;;;;;1.87;79.47;102028.94;5013845;28;20044;-65
2021/10/24 05:03:42;;;;;;;14.20;6.70;;;;;;;1.82;79.75;102038.75;5018103;28;20033;-65
2021/10/24 05:06:08;;;;;;;13.90;7.07;;;;;;;1.79;81.32;102045.00;5017602;28;20043;-64
2021/10/24 05:08:33;;;;;;;15.00;7.57;;;;;;;1.76;81.48;102042.44;5014127;28;20419;-64
2021/10/24 05:10:59;;;;;;;14.93;7.07;;;;;;;1.78;81.76;102050.31;5018034;28;20046;-64
2021/10/24 05:13:24;;;;;;;17.02;8.63;;;;;;;1.73;81.50;102042.50;5021855;28;20033;-66
2021/10/24 05:15:50;;;;;;;18.60;7.88;;;;;;;1.73;81.64;102049.56;5013686;28;20036;-65
2021/10/24 05:18:15;;;;;;;26.58;9.00;;;;;;;1.68;81.49;102049.66;5019273;28;20128;-65
2021/10/24 05:20:41;;;;;;;20.88;9.55;;;;;;;1.63;81.92;102042.75;5014521;28;20034;-65
2021/10/24 05:23:06;;;;;;;20.55;8.63;;;;;;;1.73;81.74;102062.78;5022404;28;20030;-65
2021/10/24 05:25:32;;;;;;;20.50;8.48;;;;;;;1.63;80.90;102046.28;5025821;28;20036;-65
2021/10/24 05:27:58;;;;;;;19.75;8.50;;;;;;;1.68;81.05;102054.09;5023836;28;20069;-64
2021/10/24 05:30:24;;;;;;;19.42;9.55;;;;;;;1.62;82.06;102055.09;5024111;28;20387;-64
2021/10/24 05:32:50;;;;;;;23.15;9.80;;;;;;;1.72;81.98;102067.22;5028775;28;20053;-64
2021/10/24 05:35:16;;;;;;;20.52;9.40;;;;;;;1.71;81.50;102064.59;5016976;28;20080;-65
2021/10/24 05:37:41;;;;;;;19.85;9.68;;;;;;;1.67;81.29;102053.22;5026888;28;20075;-65
2021/10/24 05:40:08;;;;;;;23.00;10.35;;;;;;;1.77;81.49;102065.31;5031917;28;20053;-64
2021/10/24 05:42:34;;;;;;;21.15;9.13;;;;;;;1.73;81.43;102063.66;5031620;28;20033;-66
2021/10/24 05:44:59;;;;;;;17.48;8.50;;;;;;;1.75;81.36;102067.16;5031664;28;20025;-65
2021/10/24 05:47:25;;;;;;;23.60;9.77;;;;;;;1.81;81.41;102077.56;5031560;28;20021;-65
2021/10/24 05:49:51;;;;;;;17.25;8.13;;;;;;;1.83;81.42;102082.81;5031654;28;20029;-65
2021/10/24 05:52:17;;;;;;;22.58;8.60;;;;;;;1.82;80.91;102084.59;5031525;28;20090;-66
2021/10/24 05:54:42;;;;;;;21.08;8.52;;;;;;;1.86;81.58;102080.97;5018547;28;20524;-64
2021/10/24 05:57:08;;;;;;;21.13;9.50;;;;;;;1.89;81.65;102086.19;5032163;28;20166;-65
2021/10/24 05:59:33;;;;;;;18.45;8.85;;;;;;;1.85;82.64;102068.66;5031592;28;20033;-65
2021/10/24 06:01:59;;;;;;;19.95;8.63;;;;;;;1.89;83.02;102072.06;5024910;28;20245;-65
2021/10/24 06:04:25;;;;;;;16.88;8.45;;;;;;;1.98;83.60;102080.69;5028400;28;20519;-65
2021/10/24 06:06:50;;;;;;;19.70;8.93;;;;;;;2.00;84.13;102078.00;5029983;28;20079;-65
2021/10/24 06:09:15;;;;;;;18.10;8.75;;;;;;;2.10;84.65;102096.22;5030387;28;20072;-65
2021/10/24 06:11:55;;;;;;;15.32;7.55;;;;;;;2.11;84.66;102076.81;5030562;28;20041;-65
2021/10/24 06:14:21;;;;;;;18.42;7.95;;;;;;;2.21;84.46;102091.56;5023516;28;20357;-65
2021/10/24 06:16:47;;;;;;;14.27;8.48;;;;;;;2.24;84.39;102099.41;5023532;28;20033;-66
2021/10/24 06:19:12;;;;;;;15.05;7.35;;;;;;;2.24;84.13;102090.59;5030056;28;20292;-64
2021/10/24 06:21:38;;;;;;;16.13;7.93;;;;;;;2.38;84.86;102114.94;5031274;28;20033;-64
2021/10/24 06:24:04;;;;;;;16.50;7.25;;;;;;;2.43;85.17;102107.75;5029736;28;20030;-65
2021/10/24 06:26:29;;;;;;;18.15;8.13;;;;;;;2.49;86.05;102114.66;5029269;28;20029;-65
2021/10/24 06:28:55;;;;;;;14.80;8.13;;;;;;;2.51;86.51;102116.34;5020286;28;20044;-64
2021/10/24 06:31:20;;;;;;;17.15;8.38;;;;;;;2.61;87.25;102122.28;5029389;28;20403;-65
2021/10/24 06:33:46;;;;;;;20.33;10.18;;;;;;;2.69;87.59;102133.53;5028141;28;20018;-63
2021/10/24 06:36:11;;;;;;;17.33;8.93;;;;;;;2.74;87.87;102129.00;5030785;28;20079;-63
2021/10/24 06:38:37;;;;;;;19.48;9.93;;;;;;;2.80;87.67;102129.69;5030118;28;20021;-65
2021/10/24 06:41:02;;;;;;;24.92;10.00;;;;;;;2.88;88.02;102142.72;5023325;28;20065;-65
2021/10/24 06:43:28;;;;;;;22.52;10.73;;;;;;;2.89;88.07;102142.69;5030281;28;20026;-64
2021/10/24 06:45:53;;;;;;;25.33;12.10;;;;;;;2.99;87.98;102141.53;5021250;28;20028;-65
2021/10/24 06:48:19;;;;;;;31.38;15.63;;;;;;;3.07;87.59;102149.28;5029152;28;20025;-64
2021/10/24 06:50:44;;;;;;;34.58;15.68;;;;;;;3.07;88.03;102130.72;5030388;28;20025;-64
2021/10/24 06:53:10;;;;;;;27.02;14.07;;;;;;;3.23;87.84;102140.84;5029035;28;20017;-65
2021/10/24 06:55:35;;;;;;;38.40;15.45;;;;;;;3.31;87.99;102141.47;5027493;28;20029;-65
2021/10/24 06:58:01;;;;;;;32.15;12.82;;;;;;;3.35;87.78;102126.38;5030070;28;20030;-65
2021/10/24 07:00:27;;;;;;;27.60;11.77;;;;;;;3.49;87.90;102137.44;5030275;28;20021;-64
2021/10/24 07:02:53;;;;;;;27.92;12.60;;;;;;;3.65;88.23;102147.50;5028468;28;20040;-64
2021/10/24 07:05:20;;;;;;;22.75;10.23;;;;;;;3.79;88.31;102160.38;5028582;28;20021;-69
2021/10/24 07:07:46;;;;;;;26.27;11.65;;;;;;;3.92;88.45;102161.72;5017689;28;20025;-70
2021/10/24 07:10:13;;;;;;;26.20;11.30;;;;;;;4.05;88.25;102153.34;5024086;28;20029;-69
2021/10/24 07:12:39;;;;;;;28.92;11.48;;;;;;;4.20;88.21;102157.28;5029492;28;20099;-69
2021/10/24 07:15:07;;;;;;;23.30;11.85;;;;;;;4.39;88.35;102161.09;5025483;28;20025;-69
2021/10/24 07:17:32;;;;;;;25.80;12.45;;;;;;;4.49;88.47;102143.91;5019296;28;20129;-69
2021/10/24 07:19:58;;;;;;;23.42;12.05;;;;;;;4.63;88.43;102142.53;5024371;28;20662;-67
2021/10/24 07:22:23;;;;;;;25.05;11.80;;;;;;;4.82;88.32;102142.75;5029083;28;20108;-68
2021/10/24 07:24:49;;;;;;;25.15;11.27;;;;;;;5.03;88.05;102157.91;5024668;28;20029;-68
2021/10/24 07:27:15;;;;;;;25.15;11.07;;;;;;;5.20;86.93;102160.84;5029463;28;20024;-69
2021/10/24 07:29:41;;;;;;;25.60;11.02;;;;;;;5.41;85.61;102159.16;5029006;28;20071;-69
2021/10/24 07:32:07;;;;;;;23.30;11.20;;;;;;;5.65;84.24;102167.13;5025254;28;20041;-69
2021/10/24 07:34:33;;;;;;;19.00;9.93;;;;;;;5.91;82.41;102169.69;5012400;28;20121;-68
2021/10/24 07:36:59;;;;;;;21.27;10.55;;;;;;;6.11;80.84;102156.44;5024493;28;20029;-68
2021/10/24 07:39:25;;;;;;;21.67;10.13;;;;;;;6.52;78.43;102168.91;5025165;28;20048;-68
2021/10/24 07:41:52;;;;;;;28.58;10.35;;;;;;;7.15;75.77;102167.09;5026135;28;20094;-69
2021/10/24 07:44:18;;;;;;;20.38;9.63;;;;;;;8.02;70.46;102171.88;5023899;28;20044;-69
2021/10/24 07:46:46;;;;;;;18.95;9.38;;;;;;;8.80;64.71;102172.44;5019135;28;20108;-69
2021/10/24 07:49:12;;;;;;;18.00;8.95;;;;;;;9.13;62.08;102171.56;5028814;28;20033;-69
2021/10/24 07:51:38;;;;;;;18.73;9.30;;;;;;;9.16;60.71;102149.97;5022725;28;20025;-70
2021/10/24 07:54:04;;;;;;;20.65;8.98;;;;;;;9.32;60.20;102166.97;5018378;28;20466;-69
2021/10/24 07:56:33;;;;;;;21.05;8.77;;;;;;;9.29;59.98;102164.44;5019985;28;20030;-68
2021/10/24 07:59:03;;;;;;;16.52;8.00;;;;;;;9.27;59.72;102168.16;5028388;28;20037;-68
2021/10/24 08:01:36;;;;;;;15.50;6.80;;;;;;;9.21;60.12;102172.03;5019197;28;20069;-69
2021/10/24 08:04:03;;;;;;;12.75;6.78;;;;;;;9.14;59.71;102164.41;5023839;28;20108;-68
2021/10/24 08:06:31;;;;;;;18.70;7.03;;;;;;;9.10;59.61;102158.31;5017108;28;20117;-69
2021/10/24 08:09:01;;;;;;;13.77;6.05;;;;;;;9.15;59.21;102171.47;5028335;28;20464;-68
2021/10/24 08:11:27;;;;;;;15.95;6.45;;;;;;;9.15;59.88;102183.06;5018181;28;20488;-68
2021/10/24 08:13:53;;;;;;;10.93;6.32;;;;;;;9.13;59.22;102178.75;5021395;28;20501;-69
2021/10/24 08:16:19;;;;;;;13.95;5.82;;;;;;;9.12;59.56;102167.16;5016660;28;20123;-68
2021/10/24 08:18:44;;;;;;;11.82;6.15;;;;;;;9.06;59.57;102159.44;5028459;28;20084;-68
2021/10/24 08:21:10;;;;;;;10.75;5.63;;;;;;;9.15;59.01;102166.13;5028110;28;20029;-69
2021/10/24 08:23:36;;;;;;;14.63;5.43;;;;;;;9.18;58.46;102165.97;5028495;28;20030;-69
2021/10/24 08:26:01;;;;;;;11.07;3.88;;;;;;;9.18;58.23;102163.28;5028209;28;20033;-69
2021/10/24 08:28:27;;;;;;;8.02;3.88;;;;;;;9.26;58.34;102177.16;5028322;28;20067;-71
2021/10/24 08:30:53;;;;;;;11.18;4.90;;;;;;;9.28;58.20;102156.50;5028239;28;20079;-68
2021/10/24 08:33:18;;;;;;;9.10;4.13;;;;;;;9.33;58.07;102166.00;5028263;28;20029;-69
2021/10/24 08:35:45;;;;;;;9.50;4.15;;;;;;;9.44;57.85;102169.94;5028535;28;20029;-69
2021/10/24 08:38:11;;;;;;;11.55;4.40;;;;;;;9.52;57.56;102178.44;5026216;28;20101;-68
2021/10/24 08:40:39;;;;;;;10.90;4.00;;;;;;;9.56;57.53;102172.81;5025226;28;20041;-69
2021/10/24 08:43:14;;;;;;;7.28;3.70;;;;;;;9.59;57.34;102164.63;5028356;28;20017;-68
2021/10/24 08:45:42;;;;;;;10.73;3.80;;;;;;;9.67;56.37;102170.41;5026878;28;20030;-69
2021/10/24 08:48:07;;;;;;;8.30;3.33;;;;;;;9.73;56.08;102163.84;5026730;28;20090;-69
2021/10/24 08:50:33;;;;;;;6.05;2.95;;;;;;;9.84;56.09;102173.06;5020553;28;20037;-69
2021/10/24 08:53:00;;;;;;;5.28;2.55;;;;;;;9.90;55.01;102178.03;5026490;28;20025;-69
2021/10/24 08:55:25;;;;;;;8.10;3.33;;;;;;;9.95;54.78;102177.78;5018229;28;20057;-69
2021/10/24 08:57:52;;;;;;;6.78;2.70;;;;;;;9.96;54.63;102176.88;5020458;28;20123;-69
2021/10/24 09:00:18;;;;;;;9.88;2.92;;;;;;;10.09;54.53;102189.50;5026336;28;20029;-68
2021/10/24 09:03:01;;;;;;;8.35;3.05;;;;;;;10.15;54.11;102186.50;5024606;28;20514;-68
2021/10/24 09:05:34;;;;;;;7.22;3.15;;;;;;;10.16;54.08;102172.13;5018472;28;20027;-68
2021/10/24 09:08:00;;;;;;;7.15;2.83;;;;;;;10.33;54.27;102181.91;5031858;28;20025;-68
2021/10/24 09:10:55;;;;;;;5.50;2.83;;;;;;;10.46;54.72;102190.97;5031890;28;20053;-69
2021/10/24 09:13:29;;;;;;;9.82;3.25;;;;;;;10.58;53.80;102177.69;5031645;28;20025;-69
2021/10/24 09:15:57;;;;;;;9.48;2.60;;;;;;;10.82;53.14;102181.66;5031709;28;20387;-68
2021/10/24 09:18:38;;;;;;;7.53;3.22;;;;;;;11.01;53.00;102171.53;5030298;28;20069;-69
2021/10/24 09:21:15;;;;;;;10.63;3.20;;;;;;;11.31;52.47;102177.72;5030074;28;20095;-68
2021/10/24 09:23:44;;;;;;;7.55;3.10;;;;;;;11.65;51.25;102172.97;5029167;28;20037;-69
2021/10/24 09:26:30;;;;;;;9.82;3.40;;;;;;;12.17;50.35;102180.31;5031341;28;20072;-68
2021/10/24 09:28:58;;;;;;;7.78;3.58;;;;;;;13.08;48.63;102166.97;5031525;28;20555;-69
2021/10/24 09:31:50;;;;;;;7.25;3.10;;;;;;;15.10;44.22;102169.91;5029150;28;20041;-68
2021/10/24 09:34:21;;;;;;;9.15;2.63;;;;;;;17.22;39.77;102154.09;5030448;28;20045;-69
2021/10/24 09:36:53;;;;;;;8.85;2.90;;;;;;;19.27;35.58;102141.50;5024248;28;20033;-68
2021/10/24 09:39:18;;;;;;;5.63;2.67;;;;;;;21.13;32.23;102135.44;5031683;28;20029;-68
2021/10/24 09:41:45;;;;;;;11.90;3.00;;;;;;;22.63;29.86;102127.31;5027500;28;20369;-68
2021/10/24 09:44:13;;;;;;;4.93;2.60;;;;;;;23.80;28.09;102119.34;5030859;28;20479;-68
2021/10/24 09:46:55;;;;;;;4.65;2.40;;;;;;;24.57;26.81;102103.91;5031431;28;20132;-69
2021/10/24 09:49:23;;;;;;;6.18;2.63;;;;;;;24.90;26.39;102102.66;5024927;28;20493;-69
2021/10/24 09:51:49;;;;;;;8.48;2.53;;;;;;;24.78;26.33;102115.09;5018572;28;20025;-68
2021/10/24 09:54:19;;;;;;;10.02;2.55;;;;;;;24.30;26.53;102105.28;5031283;28;20376;-63
2021/10/24 09:56:46;;;;;;;8.13;2.88;;;;;;;23.59;27.57;102108.13;5030854;28;20018;-62
2021/10/24 09:59:13;;;;;;;10.38;3.30;;;;;;;23.01;28.29;102118.47;5030896;28;20033;-63
2021/10/24 10:01:39;;;;;;;6.85;2.80;;;;;;;22.32;28.72;102109.81;5021563;28;20033;-63
2021/10/24 10:04:05;;;;;;;7.45;2.67;;;;;;;21.65;29.91;102118.03;5030641;28;20087;-62
2021/10/24 10:06:31;;;;;;;6.10;2.60;;;;;;;20.84;31.16;102121.19;5030828;28;20487;-63
2021/10/24 10:08:57;;;;;;;6.65;2.70;;;;;;;20.05;32.09;102123.72;5025780;28;20029;-63
2021/10/24 10:11:31;;;;;;;10.38;3.25;;;;;;;19.35;33.49;102128.88;5031639;28;20033;-63
2021/10/24 10:14:02;;;;;;;7.80;3.95;;;;;;;18.61;34.83;102132.41;5030794;28;20021;-62
2021/10/24 10:16:45;;;;;;;7.00;3.10;;;;;;;17.92;35.67;102127.91;5028065;28;20029;-61
2021/10/24 10:19:13;;;;;;;7.35;2.50;;;;;;;17.41;36.92;102127.09;5030196;28;20122;-62
2021/10/24 10:21:49;;;;;;;8.73;3.15;;;;;;;16.90;37.70;102115.34;5030815;28;20626;-63
2021/10/24 10:24:38;;;;;;;7.03;2.95;;;;;;;16.43;38.74;102099.53;5030254;28;20033;-63
2021/10/24 10:27:34;;;;;;;5.50;2.53;;;;;;;16.07;39.27;102103.44;5026966;28;20041;-62
2021/10/24 10:30:09;;;;;;;5.95;2.10;;;;;;;15.77;39.69;102100.56;5022364;28;20041;-62
2021/10/24 10:32:40;;;;;;;8.98;2.95;;;;;;;15.49;40.42;102096.50;5024038;28;20021;-63
2021/10/24 10:35:07;;;;;;;5.75;2.45;;;;;;;15.28;40.94;102106.28;5030145;28;20114;-62
2021/10/24 10:37:56;;;;;;;6.47;2.13;;;;;;;15.03;40.66;102109.19;5025327;28;20534;-64
2021/10/24 10:40:21;;;;;;;5.55;2.13;;;;;;;14.84;40.97;102108.91;5030268;28;20025;-62
2021/10/24 10:42:50;;;;;;;7.47;2.10;;;;;;;14.63;41.72;102115.94;5028641;28;20103;-63
2021/10/24 10:45:16;;;;;;;9.38;2.13;;;;;;;14.52;41.89;102118.63;5030014;28;20060;-63
2021/10/24 10:47:57;;;;;;;5.40;1.90;;;;;;;14.38;41.83;102121.47;5028568;28;20065;-63
2021/10/24 10:50:29;;;;;;;10.15;2.38;;;;;;;14.34;41.56;102129.91;5030393;28;20387;-62
2021/10/24 10:52:55;;;;;;;6.22;2.33;;;;;;;14.09;42.24;102103.84;5030232;28;20052;-62
2021/10/24 10:55:22;;;;;;;6.15;2.25;;;;;;;14.11;41.94;102128.91;5030213;28;20060;-63
2021/10/24 10:57:47;;;;;;;5.10;2.13;;;;;;;14.00;42.40;102114.47;5029633;28;20029;-63
2021/10/24 11:00:42;;;;;;;5.20;1.92;;;;;;;13.96;42.15;102124.63;5028969;28;20057;-63
2021/10/24 11:03:08;;;;;;;5.55;1.83;;;;;;;13.90;42.34;102117.00;5019168;28;20386;-62
2021/10/24 11:05:34;;;;;;;4.00;1.73;;;;;;;13.81;42.70;102111.41;5026560;28;20079;-62
2021/10/24 11:08:00;;;;;;;4.95;2.33;;;;;;;13.83;42.37;102117.56;5024410;28;20033;-62
2021/10/24 11:10:45;;;;;;;5.38;1.90;;;;;;;13.81;42.17;102125.75;5029708;28;20427;-62
2021/10/24 11:13:30;;;;;;;5.35;1.90;;;;;;;13.77;42.87;102118.88;5028032;28;20036;-63
2021/10/24 11:15:56;;;;;;;5.00;1.92;;;;;;;13.77;42.76;102108.91;5029724;28;20086;-63
2021/10/24 11:18:31;;;;;;;6.43;2.35;;;;;;;13.80;42.41;102110.53;5015231;28;20480;-62
2021/10/24 11:20:57;;;;;;;5.00;1.75;;;;;;;13.75;42.06;102104.63;5027346;28;20061;-62
2021/10/24 11:23:24;;;;;;;3.97;1.92;;;;;;;13.80;42.70;102115.06;5029498;28;20068;-63
2021/10/24 11:25:51;;;;;;;4.57;1.85;;;;;;;13.85;42.07;102123.69;5029188;28;20021;-63